FelLS Point — WDH5561 — position and weather

sailwx.info

Track history (hours):
 
Tides and Currents Weather Stations Pressure Air Temp Water Temp Dewpoint Dewpoint Depression Visibility Wind Speed Wind Dir Waves Ship Positions

FelLS Point

Owner: Vane Line Bunkering, Inc., Philadelphia, PA. More information available from US FCC via Universal Licensing System.

Last reported at 2018-Apr-19 16:58 UTC. Time now 2018-Apr-19 17:16 UTC.
Position N 40°40' W 074°00'.

Length 33 m; draft 4 m.

Type: Tug. MMSI: 303461000.

Date/timePositionNaut miles runAvg speedWind from/ knotsBaromVisibWave heightAir tempDewpointWater temp
2018-Apr-19 16:58N 40°40' W 074°00'0 0.0
2018-Apr-19 16:28N 40°40' W 074°00'0 0.0
2018-Apr-19 15:58N 40°40' W 074°00'0 0.0
2018-Apr-19 15:28N 40°40' W 074°00'0 0.0
2018-Apr-19 14:58N 40°40' W 074°00'0 0.0
2018-Apr-19 14:28N 40°40' W 074°00'0 0.0
2018-Apr-19 13:58N 40°40' W 074°00'0 0.0
2018-Apr-19 13:30N 40°40' W 074°00'3 6.8
2018-Apr-19 13:00N 40°39' W 074°04'4 7.9
2018-Apr-19 12:30N 40°39' W 074°10'4 6.9
2018-Apr-19 11:58N 40°36' W 074°12'1 1.4
2018-Apr-19 11:29N 40°35' W 074°13'1 2.8
2018-Apr-19 11:00N 40°36' W 074°12'3 6.2
2018-Apr-19 10:30N 40°39' W 074°10'3 6.4
2018-Apr-19 10:00N 40°39' W 074°06'2 5.0
2018-Apr-19 09:30N 40°40' W 074°03'5 9.4
2018-Apr-19 09:00N 40°45' W 074°01'5 9.4
2018-Apr-19 08:30N 40°49' W 073°58'5 9.9
2018-Apr-19 08:00N 40°53' W 073°55'4 0.1
2018-Apr-17 20:05N 40°57' W 073°54'0 5.7
2018-Apr-17 20:00N 40°56' W 073°54'3 5.9
2018-Apr-17 19:29N 40°54' W 073°56'3 5.8
2018-Apr-17 19:00N 40°51' W 073°57'3 5.8
2018-Apr-17 18:30N 40°48' W 073°59'3 6.1
2018-Apr-17 18:00N 40°46' W 074°00'3 6.5
2018-Apr-17 17:30N 40°43' W 074°02'4 7.0
2018-Apr-17 17:00N 40°39' W 074°03'5 9.5
2018-Apr-17 16:30N 40°39' W 074°10'3 6.4
2018-Apr-17 16:00N 40°36' W 074°12'1 2.1
2018-Apr-17 15:30N 40°35' W 074°13'0 0.0
2018-Apr-17 15:00N 40°35' W 074°13'2 3.1
2018-Apr-17 14:30N 40°37' W 074°12'4 7.2
2018-Apr-17 14:00N 40°39' W 074°08'3 6.9
2018-Apr-17 13:30N 40°39' W 074°04'3 5.8
2018-Apr-17 13:00N 40°40' W 074°00'0 0.1
2018-Apr-17 12:30N 40°40' W 074°00'0 0.0
2018-Apr-17 12:00N 40°40' W 074°00'0 0.0
2018-Apr-17 11:30N 40°40' W 074°00'0 0.0
2018-Apr-17 10:59N 40°40' W 074°00'0 0.0
2018-Apr-17 10:29N 40°40' W 074°00'0 0.0
2018-Apr-17 09:59N 40°40' W 074°00'0 0.0
2018-Apr-17 09:29N 40°40' W 074°00'0 0.0
2018-Apr-17 09:00N 40°40' W 074°00'0 0.0
2018-Apr-17 08:30N 40°40' W 074°00'0 0.0
2018-Apr-17 08:00N 40°40' W 074°00'0 0.0
2018-Apr-17 07:30N 40°40' W 074°00'0 0.0
2018-Apr-17 07:00N 40°40' W 074°00'0 0.0
2018-Apr-17 06:30N 40°40' W 074°00'0 0.0
2018-Apr-17 06:00N 40°40' W 074°00'0 0.0
2018-Apr-17 05:30N 40°40' W 074°00'2 4.4
2018-Apr-17 05:01N 40°39' W 074°02'611.1
2018-Apr-17 04:30N 40°39' W 074°10'4 7.7
2018-Apr-17 03:59N 40°35' W 074°12'1 1.1
2018-Apr-17 03:30N 40°36' W 074°12'3 6.3
2018-Apr-17 03:00N 40°39' W 074°11'4 7.7
2018-Apr-17 02:30N 40°39' W 074°06'4 7.5
2018-Apr-17 02:00N 40°41' W 074°01'1 1.3
2018-Apr-17 01:30N 40°41' W 074°01'1 2.4
2018-Apr-17 01:00N 40°40' W 074°00'0 0.1
2018-Apr-17 00:30N 40°40' W 074°00'0 0.0
2018-Apr-17 00:00N 40°40' W 074°00'0 0.0
2018-Apr-16 23:30N 40°40' W 074°00'0 0.0
2018-Apr-16 23:00N 40°40' W 074°00'0 0.0
2018-Apr-16 22:30N 40°40' W 074°00'1 2.6
2018-Apr-16 22:00N 40°41' W 074°01'0 0.5
2018-Apr-16 21:30N 40°41' W 074°00'0 0.0
2018-Apr-16 21:00N 40°41' W 074°00'0 0.0
2018-Apr-16 20:31N 40°41' W 074°00'0 0.0
2018-Apr-16 20:00N 40°41' W 074°00'0 0.0
2018-Apr-16 19:30N 40°41' W 074°00'0 0.0
2018-Apr-16 19:00N 40°41' W 074°00'0 0.0
2018-Apr-16 18:31N 40°41' W 074°00'0 0.0
2018-Apr-16 18:00N 40°41' W 074°00'0 0.0
2018-Apr-16 17:30N 40°41' W 074°00'2 3.6
2018-Apr-16 17:01N 40°40' W 074°02'510.2
2018-Apr-16 16:30N 40°39' W 074°08'1 2.4
2018-Apr-16 16:00N 40°39' W 074°10'0 0.0
2018-Apr-16 15:30N 40°39' W 074°10'0 0.0
2018-Apr-16 15:00N 40°39' W 074°10'0 0.0
2018-Apr-16 14:30N 40°39' W 074°10'0 0.0
2018-Apr-16 14:00N 40°39' W 074°10'0 0.3
2018-Apr-16 13:30N 40°39' W 074°10'4 7.7
2018-Apr-16 13:01N 40°39' W 074°05'4 6.9
2018-Apr-16 12:29N 40°40' W 074°00'0 0.0
2018-Apr-16 11:59N 40°40' W 074°00'0 0.0
2018-Apr-16 11:29N 40°40' W 074°00'0 0.0
2018-Apr-16 10:59N 40°40' W 074°00'0 0.0
2018-Apr-16 10:29N 40°40' W 074°00'0 0.0
2018-Apr-16 09:59N 40°40' W 074°00'0 0.0
2018-Apr-16 09:29N 40°40' W 074°00'0 0.0
2018-Apr-16 08:59N 40°40' W 074°00'0 0.0
2018-Apr-16 08:29N 40°40' W 074°00'0 0.0
2018-Apr-16 08:00N 40°40' W 074°00'0 0.0
2018-Apr-16 07:30N 40°40' W 074°00'0 0.0
2018-Apr-16 07:00N 40°40' W 074°00'0 0.0
2018-Apr-16 06:30N 40°40' W 074°00'0 0.0
2018-Apr-16 06:00N 40°40' W 074°00'0 0.0
2018-Apr-16 05:30N 40°40' W 074°00'0 0.0
2018-Apr-16 05:00N 40°40' W 074°00'0 0.5
2018-Apr-16 04:29N 40°40' W 074°00'0 0.0
2018-Apr-16 03:59N 40°40' W 074°00'0 0.0
2018-Apr-16 03:29N 40°40' W 074°00'0 0.0
2018-Apr-16 02:59N 40°40' W 074°00'0 0.0
2018-Apr-16 02:29N 40°40' W 074°00'0 0.0
2018-Apr-16 02:00N 40°40' W 074°00'0 0.0
2018-Apr-16 01:30N 40°40' W 074°00'0 0.0
2018-Apr-16 01:00N 40°40' W 074°00'0 0.0
2018-Apr-16 00:30N 40°40' W 074°00'0 0.0
2018-Apr-16 00:01N 40°40' W 074°00'0 0.0
2018-Apr-15 23:31N 40°40' W 074°00'0 0.0
2018-Apr-15 23:00N 40°40' W 074°00'0 0.0
2018-Apr-15 22:29N 40°40' W 074°00'0 0.0
2018-Apr-15 22:00N 40°40' W 074°00'0 0.0
2018-Apr-15 21:30N 40°40' W 074°00'0 0.0
2018-Apr-15 21:00N 40°40' W 074°00'0 0.0
2018-Apr-15 20:30N 40°40' W 074°00'0 0.0
2018-Apr-15 20:00N 40°40' W 074°00'0 0.0
2018-Apr-15 19:30N 40°40' W 074°00'0 0.0
2018-Apr-15 19:00N 40°40' W 074°00'0 0.0
2018-Apr-15 18:30N 40°40' W 074°00'0 0.1
2018-Apr-15 18:00N 40°40' W 074°00'0 0.0
2018-Apr-15 17:30N 40°40' W 074°00'0 0.0
2018-Apr-15 17:00N 40°40' W 074°00'0 0.0
2018-Apr-15 16:30N 40°40' W 074°00'0 0.0
2018-Apr-15 16:00N 40°40' W 074°00'1 2.6
2018-Apr-15 15:30N 40°41' W 074°01'0 0.5
2018-Apr-15 15:00N 40°42' W 074°00'0 0.2
2018-Apr-15 14:31N 40°42' W 074°00'2 3.6
2018-Apr-15 14:00N 40°40' W 074°01'0 0.9
2018-Apr-15 13:30N 40°40' W 074°00'0 0.0
2018-Apr-15 13:00N 40°40' W 074°00'0 0.0
2018-Apr-15 12:30N 40°40' W 074°00'0 0.0
2018-Apr-15 12:00N 40°40' W 074°00'0 0.0
2018-Apr-15 11:31N 40°40' W 074°00'1 2.8
2018-Apr-15 11:00N 40°41' W 074°00'0 0.5
2018-Apr-15 10:31N 40°42' W 074°01'1 1.5
2018-Apr-15 10:00N 40°41' W 074°01'1 1.4
2018-Apr-15 09:28N 40°41' W 074°00'2 3.6
2018-Apr-15 09:00N 40°40' W 074°01'0 0.5
2018-Apr-15 08:29N 40°40' W 074°00'0 0.0
2018-Apr-15 07:59N 40°40' W 074°00'0 0.0
2018-Apr-15 07:29N 40°40' W 074°00'0 0.0
2018-Apr-15 06:59N 40°40' W 074°00'0 0.0
2018-Apr-15 06:29N 40°40' W 074°00'0 0.0
2018-Apr-15 05:59N 40°40' W 074°00'0 0.0
2018-Apr-15 05:29N 40°40' W 074°00'0 0.0
2018-Apr-15 04:59N 40°40' W 074°00'0 0.0
2018-Apr-15 04:29N 40°40' W 074°00'0 0.0
2018-Apr-15 03:59N 40°40' W 074°00'0 0.0
2018-Apr-15 03:29N 40°40' W 074°00'0 0.0
2018-Apr-15 02:59N 40°40' W 074°00'0 0.0
2018-Apr-15 02:29N 40°40' W 074°00'0 0.0
2018-Apr-15 01:59N 40°40' W 074°00'0 0.0
2018-Apr-15 01:28N 40°40' W 074°00'0 0.0
2018-Apr-15 00:58N 40°40' W 074°00'0 0.0
2018-Apr-15 00:28N 40°40' W 074°00'0 0.0
2018-Apr-14 23:58N 40°40' W 074°00'0 0.0
2018-Apr-14 23:28N 40°40' W 074°00'0 0.0
2018-Apr-14 23:00N 40°40' W 074°00'0 0.0
2018-Apr-14 22:30N 40°40' W 074°00'0 0.4
2018-Apr-14 21:59N 40°40' W 074°00'0 0.0
2018-Apr-14 21:29N 40°40' W 074°00'0 0.0
2018-Apr-14 21:00N 40°40' W 074°00'0 0.0
2018-Apr-14 20:30N 40°40' W 074°00'0 0.0
2018-Apr-14 20:00N 40°40' W 074°00'0 0.0
2018-Apr-14 19:30N 40°40' W 074°00'0 0.0
2018-Apr-14 19:00N 40°40' W 074°00'0 0.0
2018-Apr-14 18:30N 40°40' W 074°00'0 0.0
2018-Apr-14 18:01N 40°40' W 074°00'0 0.0
2018-Apr-14 17:30N 40°40' W 074°00'0 0.0
2018-Apr-14 17:00N 40°40' W 074°00'0 0.0
2018-Apr-14 16:31N 40°40' W 074°00'0 0.0
2018-Apr-14 16:01N 40°40' W 074°00'0 0.0
2018-Apr-14 15:31N 40°40' W 074°00'0 0.0
2018-Apr-14 15:00N 40°40' W 074°00'0 0.0
2018-Apr-14 14:31N 40°40' W 074°00'0 0.0
2018-Apr-14 14:01N 40°40' W 074°00'0 0.0
2018-Apr-14 13:30N 40°40' W 074°00'0 0.0
2018-Apr-14 13:00N 40°40' W 074°00'0 0.0
2018-Apr-14 12:31N 40°40' W 074°00'0 0.0
2018-Apr-14 12:00N 40°40' W 074°00'0 0.0
2018-Apr-14 11:31N 40°40' W 074°00'0 0.0
2018-Apr-14 11:01N 40°40' W 074°00'0 0.0
2018-Apr-14 10:30N 40°40' W 074°00'0 0.0
2018-Apr-14 10:00N 40°40' W 074°00'0 0.0
2018-Apr-14 09:31N 40°40' W 074°00'0 0.0
2018-Apr-14 09:01N 40°40' W 074°00'0 0.0
2018-Apr-14 08:31N 40°40' W 074°00'0 0.1
2018-Apr-14 08:01N 40°40' W 074°00'1 1.5
2018-Apr-14 07:30N 40°40' W 074°01'0 0.0
2018-Apr-14 07:00N 40°40' W 074°01'1 1.5
2018-Apr-14 06:30N 40°40' W 074°00'0 0.0
2018-Apr-14 06:00N 40°40' W 074°00'0 0.1
2018-Apr-14 05:31N 40°40' W 074°00'0 0.0
2018-Apr-14 05:00N 40°40' W 074°00'0 0.0
2018-Apr-14 04:31N 40°40' W 074°00'0 0.0
2018-Apr-14 04:00N 40°40' W 074°00'0 0.1
2018-Apr-14 03:30N 40°40' W 074°00'1 2.8
2018-Apr-14 03:00N 40°41' W 074°00'1 2.8
2018-Apr-14 02:30N 40°41' W 074°02'2 3.8
2018-Apr-14 02:01N 40°40' W 074°04'0 0.0
2018-Apr-14 01:31N 40°40' W 074°04'0 0.1
2018-Apr-14 01:00N 40°40' W 074°04'0 0.5
2018-Apr-14 00:30N 40°40' W 074°04'3 6.5
2018-Apr-14 00:00N 40°42' W 074°00'3 6.6
2018-Apr-13 23:30N 40°44' W 073°58'1 1.6
2018-Apr-13 22:58N 40°44' W 073°56'0 0.1
2018-Apr-13 22:28N 40°44' W 073°57'0 0.0
2018-Apr-13 21:58N 40°44' W 073°57'0 0.0
2018-Apr-13 21:28N 40°44' W 073°57'0 0.0
2018-Apr-13 20:58N 40°44' W 073°57'0 0.0
2018-Apr-13 20:25N 40°44' W 073°57'0 0.0
2018-Apr-13 19:58N 40°44' W 073°57'0 0.0
2018-Apr-13 19:28N 40°44' W 073°57'0 0.0
2018-Apr-13 18:58N 40°44' W 073°57'0 0.0
2018-Apr-13 18:28N 40°44' W 073°57'0 0.0
2018-Apr-13 17:58N 40°44' W 073°57'0 0.0
2018-Apr-13 17:28N 40°44' W 073°57'0 0.0
2018-Apr-13 16:58N 40°44' W 073°57'0 0.0
2018-Apr-13 16:28N 40°44' W 073°57'0 0.0
2018-Apr-13 15:55N 40°44' W 073°57'0 0.0
2018-Apr-13 15:28N 40°44' W 073°57'0 0.0
2018-Apr-13 14:58N 40°44' W 073°57'0 0.0
2018-Apr-13 14:28N 40°44' W 073°57'0 0.0
2018-Apr-13 13:58N 40°44' W 073°57'0 0.0
2018-Apr-13 13:30N 40°44' W 073°57'1 1.2
2018-Apr-13 13:00N 40°44' W 073°57'2 5.1
2018-Apr-13 12:30N 40°42' W 073°59'5 9.1
2018-Apr-13 12:00N 40°40' W 074°04'4 7.7
2018-Apr-13 11:30N 40°39' W 074°09'3 6.4
2018-Apr-13 11:00N 40°37' W 074°12'4 0.3
2018-Apr-12 22:33N 40°33' W 074°15'0 0.0
2018-Apr-12 22:16N 40°33' W 074°15'0 0.0
2018-Apr-12 21:48N 40°33' W 074°15'0 0.0
2018-Apr-12 21:30N 40°33' W 074°15'0 0.0
2018-Apr-12 20:55N 40°33' W 074°15'0 0.0
2018-Apr-12 17:18N 40°33' W 074°15'0 0.5
2018-Apr-12 17:00N 40°33' W 074°15'3 5.8
2018-Apr-12 16:28N 40°36' W 074°12'0 0.6
2018-Apr-12 15:59N 40°36' W 074°12'1 1.1
2018-Apr-12 15:30N 40°37' W 074°12'3 7.0
2018-Apr-12 15:00N 40°39' W 074°09'4 7.7
2018-Apr-12 14:31N 40°39' W 074°04'3 5.2
2018-Apr-12 13:58N 40°40' W 074°00'0 0.0
2018-Apr-12 13:28N 40°40' W 074°00'0 0.0
2018-Apr-12 12:58N 40°40' W 074°00'0 0.0
2018-Apr-12 12:28N 40°40' W 074°00'0 0.0
2018-Apr-12 12:00N 40°40' W 074°00'0 0.0
2018-Apr-12 11:30N 40°40' W 074°00'0 0.0
2018-Apr-12 11:00N 40°40' W 074°00'0 0.0
2018-Apr-12 10:30N 40°40' W 074°00'0 0.0
2018-Apr-12 10:00N 40°40' W 074°00'0 0.0
2018-Apr-12 09:30N 40°40' W 074°00'0 0.0
2018-Apr-12 09:00N 40°40' W 074°00'0 0.0
2018-Apr-12 08:30N 40°40' W 074°00'0 0.0
2018-Apr-12 08:00N 40°40' W 074°00'0 0.0
2018-Apr-12 07:30N 40°40' W 074°00'1 2.5
2018-Apr-12 07:00N 40°39' W 074°02'4 8.7
2018-Apr-12 06:30N 40°39' W 074°07'4 7.8
2018-Apr-12 06:00N 40°38' W 074°12'2 3.1
2018-Apr-12 05:29N 40°36' W 074°12'1 1.5
2018-Apr-12 05:00N 40°37' W 074°12'3 6.3
2018-Apr-12 04:30N 40°39' W 074°09'4 7.1
2018-Apr-12 04:00N 40°39' W 074°04'2 4.8
2018-Apr-12 03:30N 40°41' W 074°02'510.1
2018-Apr-12 03:00N 40°46' W 074°01'510.3
2018-Apr-12 02:30N 40°50' W 073°57'5 9.7
2018-Apr-12 02:00N 40°55' W 073°55'4 0.1
2018-Apr-10 08:38N 40°58' W 073°54'1 9.2
2018-Apr-10 08:30N 40°57' W 073°54'5 9.1
2018-Apr-10 08:00N 40°53' W 073°56'5 9.1
2018-Apr-10 07:30N 40°49' W 073°58'4 8.6
2018-Apr-10 07:00N 40°45' W 074°01'4 8.4
2018-Apr-10 06:30N 40°41' W 074°02'4 7.4
2018-Apr-10 06:00N 40°39' W 074°06'4 7.2
2018-Apr-10 05:30N 40°39' W 074°11'3 6.3
2018-Apr-10 05:00N 40°36' W 074°12'1 1.1
2018-Apr-10 04:29N 40°35' W 074°12'0 0.6
2018-Apr-10 03:59N 40°35' W 074°12'0 0.0
2018-Apr-10 03:27N 40°35' W 074°12'0 0.0
2018-Apr-10 03:00N 40°35' W 074°12'0 0.0
2018-Apr-10 01:21N 40°35' W 074°12'0 0.0
2018-Apr-10 00:51N 40°35' W 074°12'0 0.0
2018-Apr-09 23:09N 40°35' W 074°12'0 0.0
2018-Apr-09 22:45N 40°35' W 074°12'0 0.0
2018-Apr-09 22:15N 40°35' W 074°12'0 0.0
2018-Apr-09 21:59N 40°35' W 074°12'0 0.0
2018-Apr-09 21:30N 40°35' W 074°12'0 0.0
2018-Apr-09 20:55N 40°35' W 074°12'0 0.0
2018-Apr-09 19:22N 40°35' W 074°12'0 0.0
2018-Apr-09 18:46N 40°35' W 074°12'0 0.0
2018-Apr-09 18:24N 40°35' W 074°12'0 0.0
2018-Apr-09 18:00N 40°35' W 074°12'0 0.0
2018-Apr-09 17:28N 40°35' W 074°12'  
Track history (hours):
 
Tides and Currents Weather Stations Pressure Air Temp Water Temp Dewpoint Dewpoint Depression Visibility Wind Speed Wind Dir Waves Ship Positions

FelLS Point

Owner: Vane Line Bunkering, Inc., Philadelphia, PA. More information available from US FCC via Universal Licensing System.

Last reported at 2018-Apr-19 16:58 UTC. Time now 2018-Apr-19 17:16 UTC.
Position N 40°40' W 074°00'.

Length 33 m; draft 4 m.

Type: Tug. MMSI: 303461000.

Date/timePositionNaut miles runAvg speedWind from/ knotsBaromVisibWave heightAir tempDewpointWater temp
2018-Apr-19 16:58N 40°40' W 074°00'0 0.0
2018-Apr-19 16:28N 40°40' W 074°00'0 0.0
2018-Apr-19 15:58N 40°40' W 074°00'0 0.0
2018-Apr-19 15:28N 40°40' W 074°00'0 0.0
2018-Apr-19 14:58N 40°40' W 074°00'0 0.0
2018-Apr-19 14:28N 40°40' W 074°00'0 0.0
2018-Apr-19 13:58N 40°40' W 074°00'0 0.0
2018-Apr-19 13:30N 40°40' W 074°00'3 6.8
2018-Apr-19 13:00N 40°39' W 074°04'4 7.9
2018-Apr-19 12:30N 40°39' W 074°10'4 6.9
2018-Apr-19 11:58N 40°36' W 074°12'1 1.4
2018-Apr-19 11:29N 40°35' W 074°13'1 2.8
2018-Apr-19 11:00N 40°36' W 074°12'3 6.2
2018-Apr-19 10:30N 40°39' W 074°10'3 6.4
2018-Apr-19 10:00N 40°39' W 074°06'2 5.0
2018-Apr-19 09:30N 40°40' W 074°03'5 9.4
2018-Apr-19 09:00N 40°45' W 074°01'5 9.4
2018-Apr-19 08:30N 40°49' W 073°58'5 9.9
2018-Apr-19 08:00N 40°53' W 073°55'4 0.1
2018-Apr-17 20:05N 40°57' W 073°54'0 5.7
2018-Apr-17 20:00N 40°56' W 073°54'3 5.9
2018-Apr-17 19:29N 40°54' W 073°56'3 5.8
2018-Apr-17 19:00N 40°51' W 073°57'3 5.8
2018-Apr-17 18:30N 40°48' W 073°59'3 6.1
2018-Apr-17 18:00N 40°46' W 074°00'3 6.5
2018-Apr-17 17:30N 40°43' W 074°02'4 7.0
2018-Apr-17 17:00N 40°39' W 074°03'5 9.5
2018-Apr-17 16:30N 40°39' W 074°10'3 6.4
2018-Apr-17 16:00N 40°36' W 074°12'1 2.1
2018-Apr-17 15:30N 40°35' W 074°13'0 0.0
2018-Apr-17 15:00N 40°35' W 074°13'2 3.1
2018-Apr-17 14:30N 40°37' W 074°12'4 7.2
2018-Apr-17 14:00N 40°39' W 074°08'3 6.9
2018-Apr-17 13:30N 40°39' W 074°04'3 5.8
2018-Apr-17 13:00N 40°40' W 074°00'0 0.1
2018-Apr-17 12:30N 40°40' W 074°00'0 0.0
2018-Apr-17 12:00N 40°40' W 074°00'0 0.0
2018-Apr-17 11:30N 40°40' W 074°00'0 0.0
2018-Apr-17 10:59N 40°40' W 074°00'0 0.0
2018-Apr-17 10:29N 40°40' W 074°00'0 0.0
2018-Apr-17 09:59N 40°40' W 074°00'0 0.0
2018-Apr-17 09:29N 40°40' W 074°00'0 0.0
2018-Apr-17 09:00N 40°40' W 074°00'0 0.0
2018-Apr-17 08:30N 40°40' W 074°00'0 0.0
2018-Apr-17 08:00N 40°40' W 074°00'0 0.0
2018-Apr-17 07:30N 40°40' W 074°00'0 0.0
2018-Apr-17 07:00N 40°40' W 074°00'0 0.0
2018-Apr-17 06:30N 40°40' W 074°00'0 0.0
2018-Apr-17 06:00N 40°40' W 074°00'0 0.0
2018-Apr-17 05:30N 40°40' W 074°00'2 4.4
2018-Apr-17 05:01N 40°39' W 074°02'611.1
2018-Apr-17 04:30N 40°39' W 074°10'4 7.7
2018-Apr-17 03:59N 40°35' W 074°12'1 1.1
2018-Apr-17 03:30N 40°36' W 074°12'3 6.3
2018-Apr-17 03:00N 40°39' W 074°11'4 7.7
2018-Apr-17 02:30N 40°39' W 074°06'4 7.5
2018-Apr-17 02:00N 40°41' W 074°01'1 1.3
2018-Apr-17 01:30N 40°41' W 074°01'1 2.4
2018-Apr-17 01:00N 40°40' W 074°00'0 0.1
2018-Apr-17 00:30N 40°40' W 074°00'0 0.0
2018-Apr-17 00:00N 40°40' W 074°00'0 0.0
2018-Apr-16 23:30N 40°40' W 074°00'0 0.0
2018-Apr-16 23:00N 40°40' W 074°00'0 0.0
2018-Apr-16 22:30N 40°40' W 074°00'1 2.6
2018-Apr-16 22:00N 40°41' W 074°01'0 0.5
2018-Apr-16 21:30N 40°41' W 074°00'0 0.0
2018-Apr-16 21:00N 40°41' W 074°00'0 0.0
2018-Apr-16 20:31N 40°41' W 074°00'0 0.0
2018-Apr-16 20:00N 40°41' W 074°00'0 0.0
2018-Apr-16 19:30N 40°41' W 074°00'0 0.0
2018-Apr-16 19:00N 40°41' W 074°00'0 0.0
2018-Apr-16 18:31N 40°41' W 074°00'0 0.0
2018-Apr-16 18:00N 40°41' W 074°00'0 0.0
2018-Apr-16 17:30N 40°41' W 074°00'2 3.6
2018-Apr-16 17:01N 40°40' W 074°02'510.2
2018-Apr-16 16:30N 40°39' W 074°08'1 2.4
2018-Apr-16 16:00N 40°39' W 074°10'0 0.0
2018-Apr-16 15:30N 40°39' W 074°10'0 0.0
2018-Apr-16 15:00N 40°39' W 074°10'0 0.0
2018-Apr-16 14:30N 40°39' W 074°10'0 0.0
2018-Apr-16 14:00N 40°39' W 074°10'0 0.3
2018-Apr-16 13:30N 40°39' W 074°10'4 7.7
2018-Apr-16 13:01N 40°39' W 074°05'4 6.9
2018-Apr-16 12:29N 40°40' W 074°00'0 0.0
2018-Apr-16 11:59N 40°40' W 074°00'0 0.0
2018-Apr-16 11:29N 40°40' W 074°00'0 0.0
2018-Apr-16 10:59N 40°40' W 074°00'0 0.0
2018-Apr-16 10:29N 40°40' W 074°00'0 0.0
2018-Apr-16 09:59N 40°40' W 074°00'0 0.0
2018-Apr-16 09:29N 40°40' W 074°00'0 0.0
2018-Apr-16 08:59N 40°40' W 074°00'0 0.0
2018-Apr-16 08:29N 40°40' W 074°00'0 0.0
2018-Apr-16 08:00N 40°40' W 074°00'0 0.0
2018-Apr-16 07:30N 40°40' W 074°00'0 0.0
2018-Apr-16 07:00N 40°40' W 074°00'0 0.0
2018-Apr-16 06:30N 40°40' W 074°00'0 0.0
2018-Apr-16 06:00N 40°40' W 074°00'0 0.0
2018-Apr-16 05:30N 40°40' W 074°00'0 0.0
2018-Apr-16 05:00N 40°40' W 074°00'0 0.5
2018-Apr-16 04:29N 40°40' W 074°00'0 0.0
2018-Apr-16 03:59N 40°40' W 074°00'0 0.0
2018-Apr-16 03:29N 40°40' W 074°00'0 0.0
2018-Apr-16 02:59N 40°40' W 074°00'0 0.0
2018-Apr-16 02:29N 40°40' W 074°00'0 0.0
2018-Apr-16 02:00N 40°40' W 074°00'0 0.0
2018-Apr-16 01:30N 40°40' W 074°00'0 0.0
2018-Apr-16 01:00N 40°40' W 074°00'0 0.0
2018-Apr-16 00:30N 40°40' W 074°00'0 0.0
2018-Apr-16 00:01N 40°40' W 074°00'0 0.0
2018-Apr-15 23:31N 40°40' W 074°00'0 0.0
2018-Apr-15 23:00N 40°40' W 074°00'0 0.0
2018-Apr-15 22:29N 40°40' W 074°00'0 0.0
2018-Apr-15 22:00N 40°40' W 074°00'0 0.0
2018-Apr-15 21:30N 40°40' W 074°00'0 0.0
2018-Apr-15 21:00N 40°40' W 074°00'0 0.0
2018-Apr-15 20:30N 40°40' W 074°00'0 0.0
2018-Apr-15 20:00N 40°40' W 074°00'0 0.0
2018-Apr-15 19:30N 40°40' W 074°00'0 0.0
2018-Apr-15 19:00N 40°40' W 074°00'0 0.0
2018-Apr-15 18:30N 40°40' W 074°00'0 0.1
2018-Apr-15 18:00N 40°40' W 074°00'0 0.0
2018-Apr-15 17:30N 40°40' W 074°00'0 0.0
2018-Apr-15 17:00N 40°40' W 074°00'0 0.0
2018-Apr-15 16:30N 40°40' W 074°00'0 0.0
2018-Apr-15 16:00N 40°40' W 074°00'1 2.6
2018-Apr-15 15:30N 40°41' W 074°01'0 0.5
2018-Apr-15 15:00N 40°42' W 074°00'0 0.2
2018-Apr-15 14:31N 40°42' W 074°00'2 3.6
2018-Apr-15 14:00N 40°40' W 074°01'0 0.9
2018-Apr-15 13:30N 40°40' W 074°00'0 0.0
2018-Apr-15 13:00N 40°40' W 074°00'0 0.0
2018-Apr-15 12:30N 40°40' W 074°00'0 0.0
2018-Apr-15 12:00N 40°40' W 074°00'0 0.0
2018-Apr-15 11:31N 40°40' W 074°00'1 2.8
2018-Apr-15 11:00N 40°41' W 074°00'0 0.5
2018-Apr-15 10:31N 40°42' W 074°01'1 1.5
2018-Apr-15 10:00N 40°41' W 074°01'1 1.4
2018-Apr-15 09:28N 40°41' W 074°00'2 3.6
2018-Apr-15 09:00N 40°40' W 074°01'0 0.5
2018-Apr-15 08:29N 40°40' W 074°00'0 0.0
2018-Apr-15 07:59N 40°40' W 074°00'0 0.0
2018-Apr-15 07:29N 40°40' W 074°00'0 0.0
2018-Apr-15 06:59N 40°40' W 074°00'0 0.0
2018-Apr-15 06:29N 40°40' W 074°00'0 0.0
2018-Apr-15 05:59N 40°40' W 074°00'0 0.0
2018-Apr-15 05:29N 40°40' W 074°00'0 0.0
2018-Apr-15 04:59N 40°40' W 074°00'0 0.0
2018-Apr-15 04:29N 40°40' W 074°00'0 0.0
2018-Apr-15 03:59N 40°40' W 074°00'0 0.0
2018-Apr-15 03:29N 40°40' W 074°00'0 0.0
2018-Apr-15 02:59N 40°40' W 074°00'0 0.0
2018-Apr-15 02:29N 40°40' W 074°00'0 0.0
2018-Apr-15 01:59N 40°40' W 074°00'0 0.0
2018-Apr-15 01:28N 40°40' W 074°00'0 0.0
2018-Apr-15 00:58N 40°40' W 074°00'0 0.0
2018-Apr-15 00:28N 40°40' W 074°00'0 0.0
2018-Apr-14 23:58N 40°40' W 074°00'0 0.0
2018-Apr-14 23:28N 40°40' W 074°00'0 0.0
2018-Apr-14 23:00N 40°40' W 074°00'0 0.0
2018-Apr-14 22:30N 40°40' W 074°00'0 0.4
2018-Apr-14 21:59N 40°40' W 074°00'0 0.0
2018-Apr-14 21:29N 40°40' W 074°00'0 0.0
2018-Apr-14 21:00N 40°40' W 074°00'0 0.0
2018-Apr-14 20:30N 40°40' W 074°00'0 0.0
2018-Apr-14 20:00N 40°40' W 074°00'0 0.0
2018-Apr-14 19:30N 40°40' W 074°00'0 0.0
2018-Apr-14 19:00N 40°40' W 074°00'0 0.0
2018-Apr-14 18:30N 40°40' W 074°00'0 0.0
2018-Apr-14 18:01N 40°40' W 074°00'0 0.0
2018-Apr-14 17:30N 40°40' W 074°00'0 0.0
2018-Apr-14 17:00N 40°40' W 074°00'0 0.0
2018-Apr-14 16:31N 40°40' W 074°00'0 0.0
2018-Apr-14 16:01N 40°40' W 074°00'0 0.0
2018-Apr-14 15:31N 40°40' W 074°00'0 0.0
2018-Apr-14 15:00N 40°40' W 074°00'0 0.0
2018-Apr-14 14:31N 40°40' W 074°00'0 0.0
2018-Apr-14 14:01N 40°40' W 074°00'0 0.0
2018-Apr-14 13:30N 40°40' W 074°00'0 0.0
2018-Apr-14 13:00N 40°40' W 074°00'0 0.0
2018-Apr-14 12:31N 40°40' W 074°00'0 0.0
2018-Apr-14 12:00N 40°40' W 074°00'0 0.0
2018-Apr-14 11:31N 40°40' W 074°00'0 0.0
2018-Apr-14 11:01N 40°40' W 074°00'0 0.0
2018-Apr-14 10:30N 40°40' W 074°00'0 0.0
2018-Apr-14 10:00N 40°40' W 074°00'0 0.0
2018-Apr-14 09:31N 40°40' W 074°00'0 0.0
2018-Apr-14 09:01N 40°40' W 074°00'0 0.0
2018-Apr-14 08:31N 40°40' W 074°00'0 0.1
2018-Apr-14 08:01N 40°40' W 074°00'1 1.5
2018-Apr-14 07:30N 40°40' W 074°01'0 0.0
2018-Apr-14 07:00N 40°40' W 074°01'1 1.5
2018-Apr-14 06:30N 40°40' W 074°00'0 0.0
2018-Apr-14 06:00N 40°40' W 074°00'0 0.1
2018-Apr-14 05:31N 40°40' W 074°00'0 0.0
2018-Apr-14 05:00N 40°40' W 074°00'0 0.0
2018-Apr-14 04:31N 40°40' W 074°00'0 0.0
2018-Apr-14 04:00N 40°40' W 074°00'0 0.1
2018-Apr-14 03:30N 40°40' W 074°00'1 2.8
2018-Apr-14 03:00N 40°41' W 074°00'1 2.8
2018-Apr-14 02:30N 40°41' W 074°02'2 3.8
2018-Apr-14 02:01N 40°40' W 074°04'0 0.0
2018-Apr-14 01:31N 40°40' W 074°04'0 0.1
2018-Apr-14 01:00N 40°40' W 074°04'0 0.5
2018-Apr-14 00:30N 40°40' W 074°04'3 6.5
2018-Apr-14 00:00N 40°42' W 074°00'3 6.6
2018-Apr-13 23:30N 40°44' W 073°58'1 1.6
2018-Apr-13 22:58N 40°44' W 073°56'0 0.1
2018-Apr-13 22:28N 40°44' W 073°57'0 0.0
2018-Apr-13 21:58N 40°44' W 073°57'0 0.0
2018-Apr-13 21:28N 40°44' W 073°57'0 0.0
2018-Apr-13 20:58N 40°44' W 073°57'0 0.0
2018-Apr-13 20:25N 40°44' W 073°57'0 0.0
2018-Apr-13 19:58N 40°44' W 073°57'0 0.0
2018-Apr-13 19:28N 40°44' W 073°57'0 0.0
2018-Apr-13 18:58N 40°44' W 073°57'0 0.0
2018-Apr-13 18:28N 40°44' W 073°57'0 0.0
2018-Apr-13 17:58N 40°44' W 073°57'0 0.0
2018-Apr-13 17:28N 40°44' W 073°57'0 0.0
2018-Apr-13 16:58N 40°44' W 073°57'0 0.0
2018-Apr-13 16:28N 40°44' W 073°57'0 0.0
2018-Apr-13 15:55N 40°44' W 073°57'0 0.0
2018-Apr-13 15:28N 40°44' W 073°57'0 0.0
2018-Apr-13 14:58N 40°44' W 073°57'0 0.0
2018-Apr-13 14:28N 40°44' W 073°57'0 0.0
2018-Apr-13 13:58N 40°44' W 073°57'0 0.0
2018-Apr-13 13:30N 40°44' W 073°57'1 1.2
2018-Apr-13 13:00N 40°44' W 073°57'2 5.1
2018-Apr-13 12:30N 40°42' W 073°59'5 9.1
2018-Apr-13 12:00N 40°40' W 074°04'4 7.7
2018-Apr-13 11:30N 40°39' W 074°09'3 6.4
2018-Apr-13 11:00N 40°37' W 074°12'4 0.3
2018-Apr-12 22:33N 40°33' W 074°15'0 0.0
2018-Apr-12 22:16N 40°33' W 074°15'0 0.0
2018-Apr-12 21:48N 40°33' W 074°15'0 0.0
2018-Apr-12 21:30N 40°33' W 074°15'0 0.0
2018-Apr-12 20:55N 40°33' W 074°15'0 0.0
2018-Apr-12 17:18N 40°33' W 074°15'0 0.5
2018-Apr-12 17:00N 40°33' W 074°15'3 5.8
2018-Apr-12 16:28N 40°36' W 074°12'0 0.6
2018-Apr-12 15:59N 40°36' W 074°12'1 1.1
2018-Apr-12 15:30N 40°37' W 074°12'3 7.0
2018-Apr-12 15:00N 40°39' W 074°09'4 7.7
2018-Apr-12 14:31N 40°39' W 074°04'3 5.2
2018-Apr-12 13:58N 40°40' W 074°00'0 0.0
2018-Apr-12 13:28N 40°40' W 074°00'0 0.0
2018-Apr-12 12:58N 40°40' W 074°00'0 0.0
2018-Apr-12 12:28N 40°40' W 074°00'0 0.0
2018-Apr-12 12:00N 40°40' W 074°00'0 0.0
2018-Apr-12 11:30N 40°40' W 074°00'0 0.0
2018-Apr-12 11:00N 40°40' W 074°00'0 0.0
2018-Apr-12 10:30N 40°40' W 074°00'0 0.0
2018-Apr-12 10:00N 40°40' W 074°00'0 0.0
2018-Apr-12 09:30N 40°40' W 074°00'0 0.0
2018-Apr-12 09:00N 40°40' W 074°00'0 0.0
2018-Apr-12 08:30N 40°40' W 074°00'0 0.0
2018-Apr-12 08:00N 40°40' W 074°00'0 0.0
2018-Apr-12 07:30N 40°40' W 074°00'1 2.5
2018-Apr-12 07:00N 40°39' W 074°02'4 8.7
2018-Apr-12 06:30N 40°39' W 074°07'4 7.8
2018-Apr-12 06:00N 40°38' W 074°12'2 3.1
2018-Apr-12 05:29N 40°36' W 074°12'1 1.5
2018-Apr-12 05:00N 40°37' W 074°12'3 6.3
2018-Apr-12 04:30N 40°39' W 074°09'4 7.1
2018-Apr-12 04:00N 40°39' W 074°04'2 4.8
2018-Apr-12 03:30N 40°41' W 074°02'510.1
2018-Apr-12 03:00N 40°46' W 074°01'510.3
2018-Apr-12 02:30N 40°50' W 073°57'5 9.7
2018-Apr-12 02:00N 40°55' W 073°55'4 0.1
2018-Apr-10 08:38N 40°58' W 073°54'1 9.2
2018-Apr-10 08:30N 40°57' W 073°54'5 9.1
2018-Apr-10 08:00N 40°53' W 073°56'5 9.1
2018-Apr-10 07:30N 40°49' W 073°58'4 8.6
2018-Apr-10 07:00N 40°45' W 074°01'4 8.4
2018-Apr-10 06:30N 40°41' W 074°02'4 7.4
2018-Apr-10 06:00N 40°39' W 074°06'4 7.2
2018-Apr-10 05:30N 40°39' W 074°11'3 6.3
2018-Apr-10 05:00N 40°36' W 074°12'1 1.1
2018-Apr-10 04:29N 40°35' W 074°12'0 0.6
2018-Apr-10 03:59N 40°35' W 074°12'0 0.0
2018-Apr-10 03:27N 40°35' W 074°12'0 0.0
2018-Apr-10 03:00N 40°35' W 074°12'0 0.0
2018-Apr-10 01:21N 40°35' W 074°12'0 0.0
2018-Apr-10 00:51N 40°35' W 074°12'0 0.0
2018-Apr-09 23:09N 40°35' W 074°12'0 0.0
2018-Apr-09 22:45N 40°35' W 074°12'0 0.0
2018-Apr-09 22:15N 40°35' W 074°12'0 0.0
2018-Apr-09 21:59N 40°35' W 074°12'0 0.0
2018-Apr-09 21:30N 40°35' W 074°12'0 0.0
2018-Apr-09 20:55N 40°35' W 074°12'0 0.0
2018-Apr-09 19:22N 40°35' W 074°12'0 0.0
2018-Apr-09 18:46N 40°35' W 074°12'0 0.0
2018-Apr-09 18:24N 40°35' W 074°12'0 0.0
2018-Apr-09 18:00N 40°35' W 074°12'0 0.0
2018-Apr-09 17:28N 40°35' W 074°12'  

Dump ship's entire track history